Terminal Aerodrome Forecast
Issued by NWS

Current Version | Previous Version | Text Only | Print | Product List | Glossary On
Versions: 1 2 3 4 5 6 7 8 9 10 11 12 13 14 15
000
FTUS46 KSGX 301423 AAA
TAFONT
TAF AMD
KONT 301423Z 3014/3118 VRB05KT P6SM VCTS SCT090CB BKN150
     FM302100 25010G20KT P6SM VCTS SCT040 SCT100CB
     FM310400 VRB05KT P6SM SCT040 SCT100=

USA.gov is the U.S. government's official web portal to all federal, state and local government web resources and services.